x

West Santa Barbara 38 Nm West Of Santa Barbara, Ca (46054) Wave Buoy

4:50 - Sat 25th Feb 2017 All times are PST. -8 hours from GMT.

  • Sig Wave height 6.2ft
  • Swell Direction
  • Peak Period 16s
  • Average Period 7s
  • Wind
    18mph, 22mph gusts
  • Sea Temp 56°f
  • Air Temp 52°f
  • Sea Pressure 1019.6mb
  • West Santa Barbara  38 Nm West Of Santa Barbara, Ca
  • West Santa Barbara  38 Nm West Of Santa Barbara, Ca

More Historic Weather Station data

Upgrade to MSW Pro to gain access to the past 30 days of data for over 8000 Wavebouys and Weather Stations around the globe.

Join Pro

Comparision Forecast

View Surf forecast
   
sam. 02/25 4:50 6ft 16s 7s 18 22 mph 1019.6mb 56f 52f
3:50 5.5ft 16s 6s 18 22 mph 1019.8mb 56f 52f
2:50 6ft 16s 7s 18 20 mph 1020.4mb 56f 52f
1:50 5.5ft 16s 6s 18 22 mph 1020.9mb 56f 53f
12:50 6ft 16s 6s 20 25 mph 1021.2mb 56f 53f
ven. 02/24 11:50 5.5ft 17s 6s 20 25 mph 1021.8mb 56f 53f
10:50 6ft 9s 6s 22 25 mph 1022mb 56f 53f
9:50 6ft 11s 6s 22 27 mph 1022mb 56f 53f
8:50 6ft 17s 6s 22 27 mph 1021.7mb 56f 53f
7:50 6.5ft 11s 6s 22 27 mph 1021.5mb 56f 53f
6:50 6.5ft 11s 5s 25 29 mph 1021.3mb 56f 53f
5:50 7ft 8s 6s 27 31 mph 1021.1mb 56f 53f
4:50 7ft 8s 6s 25 29 mph 1021.3mb 56f 54f
3:50 6ft 8s 5s 25 29 mph 1021.5mb 56f 53f
2:50 6ft 8s 5s 25 29 mph 1021.7mb 56f 53f
1:50 6ft 8s 6s 22 29 mph 1022mb 56f 53f
12:50 7ft 8s 6s 22 29 mph 1022.6mb 56f 52f
11:50 6.5ft 8s 6s 25 27 mph 1022.8mb 56f 52f
10:50 7ft 9s 6s 25 29 mph 1023.4mb 56f 51f
9:50 7.5ft 9s 6s 25 29 mph 1023mb 56f 51f
8:50 7ft 9s 7s 22 27 mph 1022.9mb 56f 51f
7:50 7ft 8s 7s 22 25 mph 1022.4mb 56f 50f
6:50 7.5ft 9s 7s 16 18 mph 1022mb 56f 50f
5:50 7ft 9s 7s 16 20 mph 1021.4mb 56f 50f
4:50 8ft 9s 7s 18 20 mph 1021.1mb 56f 50f
3:50 8ft 9s 7s 20 25 mph 1020.8mb 56f 50f
2:50 8ft 9s 7s 18 22 mph 1021.7mb 56f 51f
1:50 9ft 9s 7s 22 27 mph 1021.8mb 56f 51f
12:50 8ft 9s 6s 25 27 mph 1021.5mb 56f 52f
jeu. 02/23 11:50 9ft 9s 7s 22 27 mph 1021.3mb 56f 53f
10:50 9ft 8s 6s 25 31 mph 1021.2mb 56f 53f
9:50 9.5ft 9s 6s 27 31 mph 1021mb 56f 53f
8:50 10ft 8s 6s 27 34 mph 1020.8mb 56f 53f
7:50 10.5ft 8s 7s 29 34 mph 1020.4mb 56f 53f
6:50 10ft 8s 6s 29 36 mph 1020.4mb 56f 53f
5:50 10ft 8s 6s 29 34 mph 1019.8mb 56f 53f
4:50 9.5ft 8s 6s 29 36 mph 1019.6mb 56f 53f
3:50 10ft 8s 6s 29 34 mph 1019.7mb 56f 53f
2:50 9.5ft 10s 7s 29 34 mph 1019.9mb 55f 52f
1:50 10ft 8s 7s 29 34 mph 1020.3mb 55f 52f
12:50 10ft 9s 7s 27 31 mph 1021mb 55f 52f
11:50 9.5ft 9s 7s 27 31 mph 1021.5mb 55f 52f
10:50 9ft 12s 7s 27 31 mph 1022mb 55f 51f
9:50 9ft 14s 7s 20 25 mph 1022.4mb 55f 50f
8:50 9ft 8s 7s 20 25 mph 1022.2mb 55f 50f
7:50 10ft 11s 7s 22 25 mph 1021.8mb 55f 50f
6:50 10.5ft 10s 8s 22 25 mph 1021.3mb 55f 50f
5:50 11ft 13s 8s 25 31 mph 1021mb 55f 50f
4:50 11ft 13s 8s 25 29 mph 1020.6mb 55f 50f
3:50 11ft 8s 7s 27 31 mph 1020.1mb 55f 51f
2:50 12ft 12s 7s 25 29 mph 1020.3mb 55f 51f
1:50 12ft 12s 7s 31 36 mph 1020.6mb 55f 53f
12:50 11ft 14s 7s 22 27 mph 1021.3mb 55f 53f
mer. 02/22 11:50 12ft 13s 8s 29 36 mph 1021.3mb 56f 54f
10:50 13ft 13s 7s 29 36 mph 1021.2mb 56f 54f
9:50 12ft 13s 8s 29 36 mph 1021.2mb 56f 54f
8:50 11.5ft 14s 7s 31 36 mph 1020.8mb 56f 54f
7:50 12.5ft 12s 7s 29 34 mph 1020.3mb 56f 54f
6:50 11ft 14s 7s 31 36 mph 1020.2mb 56f 54f
5:50 11.5ft 15s 7s 29 36 mph 1020.3mb 55f 54f
4:50 11ft 15s 7s 27 34 mph 1020.3mb 56f 55f
3:50 10ft 15s 7s 27 34 mph 1020.3mb 56f 55f
2:50 9.5ft 15s 7s 29 34 mph 1020.5mb 56f 55f
1:50 10ft 14s 7s 29 36 mph 1020.5mb 56f 55f
12:50 10ft 15s 8s 25 29 mph 1021mb 56f 55f
11:50 10.5ft 15s 8s 27 31 mph 1021.8mb 56f 55f
10:50 9.5ft 13s 9s 25 29 mph 1022.2mb 56f 54f
9:50 10.5ft 15s 9s 18 22 mph 1022.3mb 55f 55f
8:50 10ft 14s 9s 20 22 mph 1022.5mb 55f 55f
7:50 10ft 14s 9s 20 25 mph 1022.2mb 55f 55f
6:50 10.5ft 15s 9s 18 22 mph 1022.2mb 55f 55f
5:50 10.5ft 16s 10s 20 22 mph 1022mb 55f 55f
4:50 9.5ft 14s 9s 13 18 mph 1022.1mb 55f 56f
2:50 8.5ft 13s 8s 16 18 mph 1022.7mb 55f 56f
1:50 9.5ft 12s 9s 13 16 mph 1023mb 56f 56f
12:50 9ft 12s 9s 13 16 mph 1023.8mb 56f 56f
mar. 02/21 11:50 9ft 12s 8s 11 13 mph 1024.3mb 56f 56f
10:50 9.5ft 11s 9s 7 9 mph 1024.8mb 56f 56f
9:50 8ft 11s 8s 4 7 mph 1024.8mb 56f 56f
8:50 9ft 12s 8s 2 7 mph 1024.8mb 56f 56f
7:50 8.5ft 11s 9s 2 4 mph 1024.4mb 56f 55f
6:50 9ft 11s 9s 2 4 mph 1024.1mb 57f 55f
5:50 9ft 11s 9s 4 7 mph 1024.1mb 57f 55f
4:50 9ft 11s 9s  -  2 mph 1024.2mb 57f 56f
3:50 9ft 11s 9s 2 4 mph 1024.5mb 57f 56f
2:50 9.5ft 12s 9s 7 9 mph 1024.6mb 57f 57f
1:50 9ft 11s 9s 2 4 mph 1024.9mb 56f 57f